sensor_id;sensor_type;location;lat;lon;timestamp;pressure;altitude;pressure_sealevel;temperature;humidity
14689;BME280;7432;48.728;9.154;2023-02-04T00:02:21;97777.63;;;6.68;100.00
14689;BME280;7432;48.728;9.154;2023-02-04T00:04:47;97782.56;;;6.71;100.00
14689;BME280;7432;48.728;9.154;2023-02-04T00:07:14;97783.66;;;6.67;100.00
14689;BME280;7432;48.728;9.154;2023-02-04T00:09:42;97781.03;;;6.68;100.00
14689;BME280;7432;48.728;9.154;2023-02-04T00:12:12;97775.41;;;6.63;100.00
14689;BME280;7432;48.728;9.154;2023-02-04T00:14:38;97765.03;;;6.65;100.00
14689;BME280;7432;48.728;9.154;2023-02-04T00:17:04;97763.19;;;6.67;100.00
14689;BME280;7432;48.728;9.154;2023-02-04T00:19:32;97754.41;;;6.71;100.00
14689;BME280;7432;48.728;9.154;2023-02-04T00:21:58;97758.00;;;6.68;100.00
14689;BME280;7432;48.728;9.154;2023-02-04T00:24:24;97750.19;;;6.70;100.00
14689;BME280;7432;48.728;9.154;2023-02-04T00:26:51;97770.88;;;6.67;100.00
14689;BME280;7432;48.728;9.154;2023-02-04T00:29:18;97766.69;;;6.66;100.00
14689;BME280;7432;48.728;9.154;2023-02-04T00:31:45;97761.97;;;6.72;100.00
14689;BME280;7432;48.728;9.154;2023-02-04T00:34:11;97765.25;;;6.74;100.00
14689;BME280;7432;48.728;9.154;2023-02-04T00:36:37;97781.19;;;6.78;100.00
14689;BME280;7432;48.728;9.154;2023-02-04T00:39:04;97781.44;;;6.75;100.00
14689;BME280;7432;48.728;9.154;2023-02-04T00:41:31;97795.03;;;6.75;100.00
14689;BME280;7432;48.728;9.154;2023-02-04T00:43:57;97793.91;;;6.67;100.00
14689;BME280;7432;48.728;9.154;2023-02-04T00:46:25;97788.50;;;6.71;100.00
14689;BME280;7432;48.728;9.154;2023-02-04T00:48:51;97785.41;;;6.79;100.00
14689;BME280;7432;48.728;9.154;2023-02-04T00:51:17;97800.88;;;6.77;100.00
14689;BME280;7432;48.728;9.154;2023-02-04T00:53:44;97800.88;;;6.77;100.00
14689;BME280;7432;48.728;9.154;2023-02-04T00:56:10;97793.00;;;6.80;100.00
14689;BME280;7432;48.728;9.154;2023-02-04T00:58:37;97793.19;;;6.77;100.00
14689;BME280;7432;48.728;9.154;2023-02-04T01:01:03;97792.06;;;6.81;100.00
14689;BME280;7432;48.728;9.154;2023-02-04T01:03:31;97795.84;;;6.76;100.00
14689;BME280;7432;48.728;9.154;2023-02-04T01:05:57;97796.69;;;6.76;100.00
14689;BME280;7432;48.728;9.154;2023-02-04T01:08:24;97793.91;;;6.79;100.00
14689;BME280;7432;48.728;9.154;2023-02-04T01:10:50;97806.09;;;6.76;100.00
14689;BME280;7432;48.728;9.154;2023-02-04T01:13:17;97814.72;;;6.75;100.00
14689;BME280;7432;48.728;9.154;2023-02-04T01:15:43;97800.78;;;6.66;100.00
14689;BME280;7432;48.728;9.154;2023-02-04T01:18:11;97805.78;;;6.68;100.00
14689;BME280;7432;48.728;9.154;2023-02-04T01:20:38;97809.19;;;6.68;100.00
14689;BME280;7432;48.728;9.154;2023-02-04T01:23:05;97793.41;;;6.62;100.00
14689;BME280;7432;48.728;9.154;2023-02-04T01:25:31;97798.63;;;6.60;100.00
14689;BME280;7432;48.728;9.154;2023-02-04T01:27:58;97795.97;;;6.49;100.00
14689;BME280;7432;48.728;9.154;2023-02-04T01:30:24;97795.34;;;6.45;100.00
14689;BME280;7432;48.728;9.154;2023-02-04T01:32:51;97804.47;;;6.62;100.00
14689;BME280;7432;48.728;9.154;2023-02-04T01:35:17;97822.91;;;6.54;100.00
14689;BME280;7432;48.728;9.154;2023-02-04T01:37:45;97821.88;;;6.57;100.00
14689;BME280;7432;48.728;9.154;2023-02-04T01:40:11;97829.53;;;6.57;100.00
14689;BME280;7432;48.728;9.154;2023-02-04T01:42:38;97827.50;;;6.49;100.00
14689;BME280;7432;48.728;9.154;2023-02-04T01:45:05;97831.56;;;6.39;100.00
14689;BME280;7432;48.728;9.154;2023-02-04T01:47:32;97840.00;;;6.41;100.00
14689;BME280;7432;48.728;9.154;2023-02-04T01:49:59;97843.84;;;6.34;100.00
14689;BME280;7432;48.728;9.154;2023-02-04T01:52:27;97838.84;;;6.33;100.00
14689;BME280;7432;48.728;9.154;2023-02-04T01:54:58;97829.44;;;6.33;100.00
14689;BME280;7432;48.728;9.154;2023-02-04T01:57:24;97835.97;;;6.25;100.00
14689;BME280;7432;48.728;9.154;2023-02-04T01:59:53;97838.94;;;6.19;100.00
14689;BME280;7432;48.728;9.154;2023-02-04T02:02:38;97828.38;;;6.11;100.00
14689;BME280;7432;48.728;9.154;2023-02-04T02:05:05;97842.69;;;6.13;100.00
14689;BME280;7432;48.728;9.154;2023-02-04T02:07:32;97828.13;;;6.01;100.00
14689;BME280;7432;48.728;9.154;2023-02-04T02:10:00;97841.16;;;5.98;100.00
14689;BME280;7432;48.728;9.154;2023-02-04T02:12:27;97844.16;;;5.90;100.00
14689;BME280;7432;48.728;9.154;2023-02-04T02:14:53;97843.56;;;5.87;100.00
14689;BME280;7432;48.728;9.154;2023-02-04T02:17:20;97853.03;;;5.85;100.00
14689;BME280;7432;48.728;9.154;2023-02-04T02:19:47;97856.78;;;5.79;100.00
14689;BME280;7432;48.728;9.154;2023-02-04T02:22:17;97852.06;;;5.73;100.00
14689;BME280;7432;48.728;9.154;2023-02-04T02:24:48;97855.66;;;5.71;100.00
14689;BME280;7432;48.728;9.154;2023-02-04T02:27:14;97857.19;;;5.73;100.00
14689;BME280;7432;48.728;9.154;2023-02-04T02:29:41;97862.50;;;5.70;100.00
14689;BME280;7432;48.728;9.154;2023-02-04T02:32:09;97864.28;;;5.68;100.00
14689;BME280;7432;48.728;9.154;2023-02-04T02:34:37;97862.22;;;5.61;100.00
14689;BME280;7432;48.728;9.154;2023-02-04T02:37:05;97865.38;;;5.52;100.00
14689;BME280;7432;48.728;9.154;2023-02-04T02:39:33;97861.81;;;5.54;100.00
14689;BME280;7432;48.728;9.154;2023-02-04T02:42:01;97878.56;;;5.58;100.00
14689;BME280;7432;48.728;9.154;2023-02-04T02:44:28;97895.47;;;5.47;100.00
14689;BME280;7432;48.728;9.154;2023-02-04T02:46:55;97898.59;;;5.52;100.00
14689;BME280;7432;48.728;9.154;2023-02-04T02:49:21;97883.88;;;5.55;100.00
14689;BME280;7432;48.728;9.154;2023-02-04T02:51:48;97879.78;;;5.53;100.00
14689;BME280;7432;48.728;9.154;2023-02-04T02:54:19;97874.22;;;5.46;100.00
14689;BME280;7432;48.728;9.154;2023-02-04T02:56:46;97869.31;;;5.43;100.00
14689;BME280;7432;48.728;9.154;2023-02-04T02:59:16;97871.75;;;5.45;100.00
14689;BME280;7432;48.728;9.154;2023-02-04T03:01:43;97875.69;;;5.36;100.00
14689;BME280;7432;48.728;9.154;2023-02-04T03:04:11;97879.06;;;5.36;100.00
14689;BME280;7432;48.728;9.154;2023-02-04T03:06:37;97879.06;;;5.36;100.00
14689;BME280;7432;48.728;9.154;2023-02-04T03:09:04;97874.88;;;5.35;100.00
14689;BME280;7432;48.728;9.154;2023-02-04T03:11:31;97880.63;;;5.39;100.00
14689;BME280;7432;48.728;9.154;2023-02-04T03:13:58;97878.25;;;5.36;100.00
14689;BME280;7432;48.728;9.154;2023-02-04T03:16:26;97883.47;;;5.34;100.00
14689;BME280;7432;48.728;9.154;2023-02-04T03:18:53;97888.91;;;5.43;100.00
14689;BME280;7432;48.728;9.154;2023-02-04T03:21:19;97912.28;;;5.36;100.00
14689;BME280;7432;48.728;9.154;2023-02-04T03:23:46;97915.53;;;5.38;100.00
14689;BME280;7432;48.728;9.154;2023-02-04T03:26:13;97906.81;;;5.43;100.00
14689;BME280;7432;48.728;9.154;2023-02-04T03:28:40;97910.25;;;5.42;100.00
14689;BME280;7432;48.728;9.154;2023-02-04T03:31:07;97925.03;;;5.36;100.00
14689;BME280;7432;48.728;9.154;2023-02-04T03:33:36;97923.50;;;5.34;100.00
14689;BME280;7432;48.728;9.154;2023-02-04T03:36:03;97934.00;;;5.29;100.00
14689;BME280;7432;48.728;9.154;2023-02-04T03:38:29;97924.13;;;5.37;100.00
14689;BME280;7432;48.728;9.154;2023-02-04T03:40:58;97927.59;;;5.36;100.00
14689;BME280;7432;48.728;9.154;2023-02-04T03:43:24;97934.53;;;5.34;100.00
14689;BME280;7432;48.728;9.154;2023-02-04T03:45:50;97924.31;;;5.20;100.00
14689;BME280;7432;48.728;9.154;2023-02-04T03:48:17;97931.88;;;5.36;100.00
14689;BME280;7432;48.728;9.154;2023-02-04T03:50:44;97943.56;;;5.40;100.00
14689;BME280;7432;48.728;9.154;2023-02-04T03:53:11;97942.09;;;5.36;100.00
14689;BME280;7432;48.728;9.154;2023-02-04T03:55:37;97944.66;;;5.36;100.00
14689;BME280;7432;48.728;9.154;2023-02-04T03:58:04;97953.69;;;5.42;100.00
14689;BME280;7432;48.728;9.154;2023-02-04T04:00:30;97953.06;;;5.38;100.00
14689;BME280;7432;48.728;9.154;2023-02-04T04:02:57;97959.06;;;5.37;100.00
14689;BME280;7432;48.728;9.154;2023-02-04T04:05:24;97952.31;;;5.36;100.00
14689;BME280;7432;48.728;9.154;2023-02-04T04:07:52;97956.59;;;5.35;100.00
14689;BME280;7432;48.728;9.154;2023-02-04T04:10:18;97964.47;;;5.32;100.00
14689;BME280;7432;48.728;9.154;2023-02-04T04:12:44;97973.84;;;5.32;100.00
14689;BME280;7432;48.728;9.154;2023-02-04T04:15:11;97969.56;;;5.32;100.00
14689;BME280;7432;48.728;9.154;2023-02-04T04:17:37;97970.28;;;5.34;100.00
14689;BME280;7432;48.728;9.154;2023-02-04T04:20:04;97974.41;;;5.37;100.00
14689;BME280;7432;48.728;9.154;2023-02-04T04:22:31;97982.53;;;5.44;100.00
14689;BME280;7432;48.728;9.154;2023-02-04T04:24:59;97970.84;;;5.39;100.00
14689;BME280;7432;48.728;9.154;2023-02-04T04:27:25;97981.69;;;5.43;100.00
14689;BME280;7432;48.728;9.154;2023-02-04T04:29:53;97943.56;;;5.26;100.00
14689;BME280;7432;48.728;9.154;2023-02-04T04:32:20;97984.88;;;5.47;100.00
14689;BME280;7432;48.728;9.154;2023-02-04T04:34:46;97983.78;;;5.51;100.00
14689;BME280;7432;48.728;9.154;2023-02-04T04:37:13;97982.41;;;5.59;100.00
14689;BME280;7432;48.728;9.154;2023-02-04T04:39:39;97982.59;;;5.56;100.00
14689;BME280;7432;48.728;9.154;2023-02-04T04:42:07;97985.88;;;5.58;100.00
14689;BME280;7432;48.728;9.154;2023-02-04T04:44:33;97992.34;;;5.50;100.00
14689;BME280;7432;48.728;9.154;2023-02-04T04:47:00;97983.78;;;5.51;100.00
14689;BME280;7432;48.728;9.154;2023-02-04T04:49:27;97989.44;;;5.56;100.00
14689;BME280;7432;48.728;9.154;2023-02-04T04:51:53;97990.53;;;5.52;100.00
14689;BME280;7432;48.728;9.154;2023-02-04T04:54:20;97987.06;;;5.53;100.00
14689;BME280;7432;48.728;9.154;2023-02-04T04:56:46;97986.22;;;5.52;100.00
14689;BME280;7432;48.728;9.154;2023-02-04T04:59:14;97982.41;;;5.59;100.00
14689;BME280;7432;48.728;9.154;2023-02-04T05:01:40;97992.34;;;5.50;100.00
14689;BME280;7432;48.728;9.154;2023-02-04T05:04:07;97980.41;;;5.50;100.00
14689;BME280;7432;48.728;9.154;2023-02-04T05:06:33;97978.31;;;5.43;100.00
14689;BME280;7432;48.728;9.154;2023-02-04T05:08:59;97985.69;;;5.47;100.00
14689;BME280;7432;48.728;9.154;2023-02-04T05:11:26;97985.50;;;5.36;100.00
14689;BME280;7432;48.728;9.154;2023-02-04T05:13:52;97996.19;;;5.43;100.00
14689;BME280;7432;48.728;9.154;2023-02-04T05:16:20;97994.66;;;5.40;100.00
14689;BME280;7432;48.728;9.154;2023-02-04T05:18:46;97991.25;;;5.39;100.00
14689;BME280;7432;48.728;9.154;2023-02-04T05:21:12;97991.25;;;5.39;100.00
14689;BME280;7432;48.728;9.154;2023-02-04T05:23:39;97990.97;;;5.44;100.00
14689;BME280;7432;48.728;9.154;2023-02-04T05:26:05;97997.84;;;5.44;100.00
14689;BME280;7432;48.728;9.154;2023-02-04T05:28:31;97980.22;;;5.39;100.00
14689;BME280;7432;48.728;9.154;2023-02-04T05:30:58;97987.34;;;5.34;100.00
14689;BME280;7432;48.728;9.154;2023-02-04T05:33:26;97990.44;;;5.39;100.00
14689;BME280;7432;48.728;9.154;2023-02-04T05:35:52;98005.94;;;5.36;100.00
14689;BME280;7432;48.728;9.154;2023-02-04T05:38:18;98012.88;;;5.34;100.00
14689;BME280;7432;48.728;9.154;2023-02-04T05:40:45;98009.50;;;5.33;100.00
14689;BME280;7432;48.728;9.154;2023-02-04T05:43:11;98015.72;;;5.29;100.00
14689;BME280;7432;48.728;9.154;2023-02-04T05:45:37;98018.88;;;5.33;100.00
14689;BME280;7432;48.728;9.154;2023-02-04T05:48:04;98025.75;;;5.32;100.00
14689;BME280;7432;48.728;9.154;2023-02-04T05:50:31;98013.88;;;5.31;100.00
14689;BME280;7432;48.728;9.154;2023-02-04T05:52:58;98005.69;;;5.26;100.00
14689;BME280;7432;48.728;9.154;2023-02-04T05:55:24;98003.50;;;5.34;100.00
14689;BME280;7432;48.728;9.154;2023-02-04T05:57:51;97998.91;;;5.25;100.00
14689;BME280;7432;48.728;9.154;2023-02-04T06:00:18;98010.78;;;5.26;100.00
14689;BME280;7432;48.728;9.154;2023-02-04T06:02:44;98010.16;;;5.37;100.00
14689;BME280;7432;48.728;9.154;2023-02-04T06:05:10;98010.59;;;5.29;100.00
14689;BME280;7432;48.728;9.154;2023-02-04T06:07:38;98011.13;;;5.20;100.00
14689;BME280;7432;48.728;9.154;2023-02-04T06:10:05;98021.53;;;5.17;100.00
14689;BME280;7432;48.728;9.154;2023-02-04T06:12:32;98038.13;;;5.10;100.00
14689;BME280;7432;48.728;9.154;2023-02-04T06:14:58;98036.56;;;5.08;100.00
14689;BME280;7432;48.728;9.154;2023-02-04T06:17:25;98045.84;;;5.09;100.00
14689;BME280;7432;48.728;9.154;2023-02-04T06:19:51;98045.13;;;5.07;100.00
14689;BME280;7432;48.728;9.154;2023-02-04T06:22:17;98051.72;;;5.11;100.00
14689;BME280;7432;48.728;9.154;2023-02-04T06:24:45;98051.88;;;5.08;100.00
14689;BME280;7432;48.728;9.154;2023-02-04T06:27:11;98055.78;;;4.99;100.00
14689;BME280;7432;48.728;9.154;2023-02-04T06:29:38;98051.75;;;4.95;100.00
14689;BME280;7432;48.728;9.154;2023-02-04T06:32:04;98064.34;;;4.98;100.00
14689;BME280;7432;48.728;9.154;2023-02-04T06:34:30;98060.88;;;4.99;100.00
14689;BME280;7432;48.728;9.154;2023-02-04T06:36:57;98062.06;;;4.94;100.00
14689;BME280;7432;48.728;9.154;2023-02-04T06:39:23;98062.44;;;5.02;100.00
14689;BME280;7432;48.728;9.154;2023-02-04T06:41:51;98066.53;;;5.04;100.00
14689;BME280;7432;48.728;9.154;2023-02-04T06:44:17;98064.06;;;5.03;100.00
14689;BME280;7432;48.728;9.154;2023-02-04T06:46:44;98066.16;;;4.96;100.00
14689;BME280;7432;48.728;9.154;2023-02-04T06:49:11;98064.06;;;5.03;100.00
14689;BME280;7432;48.728;9.154;2023-02-04T06:51:37;98071.72;;;5.03;100.00
14689;BME280;7432;48.728;9.154;2023-02-04T06:54:03;98073.38;;;5.04;100.00
14689;BME280;7432;48.728;9.154;2023-02-04T06:56:30;98070.53;;;4.94;100.00
14689;BME280;7432;48.728;9.154;2023-02-04T06:58:57;98086.66;;;4.95;100.00
14689;BME280;7432;48.728;9.154;2023-02-04T07:01:24;98089.13;;;4.96;100.00
14689;BME280;7432;48.728;9.154;2023-02-04T07:03:50;98094.31;;;4.95;100.00
14689;BME280;7432;48.728;9.154;2023-02-04T07:06:17;98096.63;;;4.99;100.00
14689;BME280;7432;48.728;9.154;2023-02-04T07:08:43;98099.72;;;5.04;100.00
14689;BME280;7432;48.728;9.154;2023-02-04T07:11:11;98099.06;;;5.01;100.00
14689;BME280;7432;48.728;9.154;2023-02-04T07:13:38;98107.13;;;5.09;100.00
14689;BME280;7432;48.728;9.154;2023-02-04T07:16:06;98107.22;;;5.07;100.00
14689;BME280;7432;48.728;9.154;2023-02-04T07:18:32;98113.63;;;5.14;100.00
14689;BME280;7432;48.728;9.154;2023-02-04T07:20:59;98114.38;;;5.16;100.00
14689;BME280;7432;48.728;9.154;2023-02-04T07:23:25;98124.38;;;5.19;100.00
14689;BME280;7432;48.728;9.154;2023-02-04T07:25:52;98132.69;;;5.23;100.00
14689;BME280;7432;48.728;9.154;2023-02-04T07:28:20;98132.69;;;5.23;100.00
14689;BME280;7432;48.728;9.154;2023-02-04T07:30:46;98140.53;;;5.20;100.00
14689;BME280;7432;48.728;9.154;2023-02-04T07:33:14;98143.25;;;5.17;100.00
14689;BME280;7432;48.728;9.154;2023-02-04T07:35:40;98137.25;;;5.18;100.00
14689;BME280;7432;48.728;9.154;2023-02-04T07:38:07;98141.25;;;5.22;100.00
14689;BME280;7432;48.728;9.154;2023-02-04T07:40:33;98136.25;;;5.20;100.00
14689;BME280;7432;48.728;9.154;2023-02-04T07:43:00;98129.41;;;5.21;100.00
14689;BME280;7432;48.728;9.154;2023-02-04T07:45:26;98142.53;;;5.15;100.00
14689;BME280;7432;48.728;9.154;2023-02-04T07:47:52;98146.47;;;5.20;100.00
14689;BME280;7432;48.728;9.154;2023-02-04T07:50:20;98145.56;;;5.21;100.00
14689;BME280;7432;48.728;9.154;2023-02-04T07:52:47;98151.69;;;5.19;100.00
14689;BME280;7432;48.728;9.154;2023-02-04T07:55:13;98153.84;;;5.11;100.00
14689;BME280;7432;48.728;9.154;2023-02-04T07:57:40;98155.56;;;5.10;100.00
14689;BME280;7432;48.728;9.154;2023-02-04T08:00:08;98164.84;;;5.11;100.00
14689;BME280;7432;48.728;9.154;2023-02-04T08:02:34;98173.66;;;5.06;100.00
14689;BME280;7432;48.728;9.154;2023-02-04T08:05:01;98178.38;;;5.13;100.00
14689;BME280;7432;48.728;9.154;2023-02-04T08:07:29;98185.28;;;5.11;100.00
14689;BME280;7432;48.728;9.154;2023-02-04T08:09:55;98192.28;;;5.08;100.00
14689;BME280;7432;48.728;9.154;2023-02-04T08:12:21;98180.81;;;5.15;100.00
14689;BME280;7432;48.728;9.154;2023-02-04T08:14:48;98179.38;;;5.11;100.00
14689;BME280;7432;48.728;9.154;2023-02-04T08:17:14;98182.81;;;5.10;100.00
14689;BME280;7432;48.728;9.154;2023-02-04T08:19:41;98183.66;;;5.10;100.00
14689;BME280;7432;48.728;9.154;2023-02-04T08:22:07;98197.53;;;5.20;100.00
14689;BME280;7432;48.728;9.154;2023-02-04T08:24:36;98195.38;;;5.28;100.00
14689;BME280;7432;48.728;9.154;2023-02-04T08:27:02;98195.13;;;5.33;100.00
14689;BME280;7432;48.728;9.154;2023-02-04T08:29:29;98189.50;;;5.42;100.00
14689;BME280;7432;48.728;9.154;2023-02-04T08:31:55;98193.09;;;5.54;99.95
14689;BME280;7432;48.728;9.154;2023-02-04T08:34:21;98203.97;;;5.57;99.03
14689;BME280;7432;48.728;9.154;2023-02-04T08:36:48;98206.34;;;5.60;99.21
14689;BME280;7432;48.728;9.154;2023-02-04T08:39:14;98210.03;;;5.70;98.13
14689;BME280;7432;48.728;9.154;2023-02-04T08:41:42;98207.69;;;5.81;98.15
14689;BME280;7432;48.728;9.154;2023-02-04T08:44:08;98205.63;;;6.02;99.13
14689;BME280;7432;48.728;9.154;2023-02-04T08:46:35;98207.03;;;6.36;96.61
14689;BME280;7432;48.728;9.154;2023-02-04T08:49:01;98210.50;;;7.04;95.49
14689;BME280;7432;48.728;9.154;2023-02-04T08:51:28;98218.28;;;8.33;92.54
14689;BME280;7432;48.728;9.154;2023-02-04T08:53:54;98217.53;;;9.29;85.73
14689;BME280;7432;48.728;9.154;2023-02-04T08:56:21;98214.16;;;9.63;81.89
14689;BME280;7432;48.728;9.154;2023-02-04T08:58:49;98217.06;;;9.59;79.75
14689;BME280;7432;48.728;9.154;2023-02-04T09:01:17;98227.56;;;9.56;80.00
14689;BME280;7432;48.728;9.154;2023-02-04T09:03:43;98238.44;;;9.59;79.89
14689;BME280;7432;48.728;9.154;2023-02-04T09:06:10;98246.19;;;10.62;78.12
14689;BME280;7432;48.728;9.154;2023-02-04T09:08:36;98246.31;;;13.12;70.09
14689;BME280;7432;48.728;9.154;2023-02-04T09:11:03;98245.88;;;14.04;62.88
14689;BME280;7432;48.728;9.154;2023-02-04T09:13:30;98237.91;;;12.79;63.08
14689;BME280;7432;48.728;9.154;2023-02-04T09:15:59;98255.16;;;11.66;65.33
14689;BME280;7432;48.728;9.154;2023-02-04T09:18:25;98252.72;;;10.44;67.71
14689;BME280;7432;48.728;9.154;2023-02-04T09:20:51;98249.19;;;9.88;71.22
14689;BME280;7432;48.728;9.154;2023-02-04T09:23:18;98249.13;;;9.66;73.36
14689;BME280;7432;48.728;9.154;2023-02-04T09:25:45;98254.16;;;9.43;74.77
14689;BME280;7432;48.728;9.154;2023-02-04T09:28:12;98264.38;;;9.09;74.91
14689;BME280;7432;48.728;9.154;2023-02-04T09:30:42;98259.09;;;8.74;74.32
14689;BME280;7432;48.728;9.154;2023-02-04T09:33:11;98266.03;;;8.09;76.69
14689;BME280;7432;48.728;9.154;2023-02-04T09:35:38;98270.41;;;7.82;78.94
14689;BME280;7432;48.728;9.154;2023-02-04T09:38:05;98270.44;;;7.94;81.48
14689;BME280;7432;48.728;9.154;2023-02-04T09:40:33;98265.84;;;8.12;81.08
14689;BME280;7432;48.728;9.154;2023-02-04T09:43:01;98254.50;;;8.28;79.99
14689;BME280;7432;48.728;9.154;2023-02-04T09:45:31;98269.50;;;8.34;79.32
14689;BME280;7432;48.728;9.154;2023-02-04T09:47:58;98265.84;;;8.12;75.44
14689;BME280;7432;48.728;9.154;2023-02-04T09:50:29;98285.06;;;8.19;78.31
14689;BME280;7432;48.728;9.154;2023-02-04T09:52:59;98295.53;;;8.16;79.57
14689;BME280;7432;48.728;9.154;2023-02-04T09:55:28;98290.00;;;8.22;78.25
14689;BME280;7432;48.728;9.154;2023-02-04T09:57:55;98291.47;;;7.87;77.57
14689;BME280;7432;48.728;9.154;2023-02-04T10:00:23;98284.81;;;7.97;78.21
14689;BME280;7432;48.728;9.154;2023-02-04T10:02:51;98285.75;;;8.08;75.48
14689;BME280;7432;48.728;9.154;2023-02-04T10:05:20;98288.38;;;8.46;76.50
14689;BME280;7432;48.728;9.154;2023-02-04T10:07:51;98292.06;;;8.67;78.62
14689;BME280;7432;48.728;9.154;2023-02-04T10:10:19;98286.31;;;8.64;76.39
14689;BME280;7432;48.728;9.154;2023-02-04T10:12:50;98282.53;;;8.44;74.12
14689;BME280;7432;48.728;9.154;2023-02-04T10:15:18;98284.41;;;8.55;75.68
14689;BME280;7432;48.728;9.154;2023-02-04T10:17:46;98295.38;;;8.44;74.93
14689;BME280;7432;48.728;9.154;2023-02-04T10:20:14;98289.06;;;8.23;73.52
14689;BME280;7432;48.728;9.154;2023-02-04T10:22:41;98290.25;;;7.92;71.54
14689;BME280;7432;48.728;9.154;2023-02-04T10:25:12;98289.19;;;7.82;73.10
14689;BME280;7432;48.728;9.154;2023-02-04T10:27:49;98282.28;;;7.70;72.05
14689;BME280;7432;48.728;9.154;2023-02-04T10:30:19;98279.31;;;8.15;73.67
14689;BME280;7432;48.728;9.154;2023-02-04T10:32:46;98276.47;;;8.32;71.44
14689;BME280;7432;48.728;9.154;2023-02-04T10:35:15;98282.72;;;8.28;71.65
14689;BME280;7432;48.728;9.154;2023-02-04T10:37:42;98281.03;;;8.15;72.08
14689;BME280;7432;48.728;9.154;2023-02-04T10:40:26;98283.84;;;8.24;70.17
14689;BME280;7432;48.728;9.154;2023-02-04T10:42:53;98276.81;;;8.01;69.43
14689;BME280;7432;48.728;9.154;2023-02-04T10:45:21;98277.34;;;7.67;70.48
14689;BME280;7432;48.728;9.154;2023-02-04T10:47:50;98283.06;;;7.58;71.43
14689;BME280;7432;48.728;9.154;2023-02-04T10:50:18;98273.03;;;7.41;71.47
14689;BME280;7432;48.728;9.154;2023-02-04T10:52:48;98272.47;;;7.50;71.95
14689;BME280;7432;48.728;9.154;2023-02-04T10:55:17;98272.56;;;7.75;72.36
14689;BME280;7432;48.728;9.154;2023-02-04T10:57:47;98272.16;;;7.54;71.33
14689;BME280;7432;48.728;9.154;2023-02-04T11:00:16;98279.41;;;7.62;71.24
14689;BME280;7432;48.728;9.154;2023-02-04T11:02:44;98280.34;;;7.73;68.24
14689;BME280;7432;48.728;9.154;2023-02-04T11:05:15;98272.31;;;7.65;70.16
14689;BME280;7432;48.728;9.154;2023-02-04T11:07:42;98278.72;;;7.85;71.39
14689;BME280;7432;48.728;9.154;2023-02-04T11:10:13;98276.88;;;7.87;71.97
14689;BME280;7432;48.728;9.154;2023-02-04T11:12:42;98282.69;;;7.64;72.34
14689;BME280;7432;48.728;9.154;2023-02-04T11:15:42;98285.81;;;7.55;72.39
14689;BME280;7432;48.728;9.154;2023-02-04T11:18:10;98273.78;;;7.43;72.21
14689;BME280;7432;48.728;9.154;2023-02-04T11:20:38;98289.63;;;7.89;73.00
14689;BME280;7432;48.728;9.154;2023-02-04T11:23:27;98285.19;;;7.78;69.18
14689;BME280;7432;48.728;9.154;2023-02-04T11:26:01;98287.34;;;7.84;72.00
14689;BME280;7432;48.728;9.154;2023-02-04T11:28:27;98281.53;;;7.95;70.12
14689;BME280;7432;48.728;9.154;2023-02-04T11:31:00;98284.44;;;8.03;68.25
14689;BME280;7432;48.728;9.154;2023-02-04T11:33:37;98288.69;;;7.90;68.29
14689;BME280;7432;48.728;9.154;2023-02-04T11:36:06;98275.94;;;7.75;68.85
14689;BME280;7432;48.728;9.154;2023-02-04T11:38:34;98275.81;;;7.64;68.93
14689;BME280;7432;48.728;9.154;2023-02-04T11:41:00;98274.59;;;7.70;71.34
14689;BME280;7432;48.728;9.154;2023-02-04T11:43:32;98273.19;;;7.79;72.71
14689;BME280;7432;48.728;9.154;2023-02-04T11:46:03;98279.44;;;7.87;68.64
14689;BME280;7432;48.728;9.154;2023-02-04T11:48:30;98287.06;;;7.89;69.88
14689;BME280;7432;48.728;9.154;2023-02-04T11:50:58;98266.91;;;7.70;71.45
14689;BME280;7432;48.728;9.154;2023-02-04T11:53:28;98287.31;;;7.71;72.11
14689;BME280;7432;48.728;9.154;2023-02-04T11:55:54;98287.16;;;7.60;72.23
14689;BME280;7432;48.728;9.154;2023-02-04T11:58:21;98287.03;;;7.49;74.26
14689;BME280;7432;48.728;9.154;2023-02-04T12:00:50;98291.13;;;7.52;72.71
14689;BME280;7432;48.728;9.154;2023-02-04T12:03:23;98289.06;;;7.44;71.87
14689;BME280;7432;48.728;9.154;2023-02-04T12:05:51;98287.81;;;7.37;73.96
14689;BME280;7432;48.728;9.154;2023-02-04T12:08:25;98280.56;;;7.30;72.36
14689;BME280;7432;48.728;9.154;2023-02-04T12:11:00;98283.59;;;7.36;72.53
14689;BME280;7432;48.728;9.154;2023-02-04T12:13:28;98292.09;;;7.37;70.27
14689;BME280;7432;48.728;9.154;2023-02-04T12:15:57;98295.66;;;7.48;70.67
14689;BME280;7432;48.728;9.154;2023-02-04T12:18:26;98269.59;;;7.54;71.34
14689;BME280;7432;48.728;9.154;2023-02-04T12:20:53;98287.69;;;7.65;70.03
14689;BME280;7432;48.728;9.154;2023-02-04T12:23:20;98296.03;;;7.69;68.21
14689;BME280;7432;48.728;9.154;2023-02-04T12:25:46;98302.06;;;7.68;67.83
14689;BME280;7432;48.728;9.154;2023-02-04T12:28:12;98300.31;;;7.68;65.97
14689;BME280;7432;48.728;9.154;2023-02-04T12:30:39;98292.81;;;7.65;67.99
14689;BME280;7432;48.728;9.154;2023-02-04T12:33:05;98298.69;;;7.67;65.56
14689;BME280;7432;48.728;9.154;2023-02-04T12:35:33;98300.25;;;7.70;65.26
14689;BME280;7432;48.728;9.154;2023-02-04T12:38:00;98302.00;;;7.82;65.43
14689;BME280;7432;48.728;9.154;2023-02-04T12:40:26;98303.28;;;8.02;66.29
14689;BME280;7432;48.728;9.154;2023-02-04T12:42:53;98296.63;;;8.12;65.58
14689;BME280;7432;48.728;9.154;2023-02-04T12:45:19;98296.31;;;8.04;64.91
14689;BME280;7432;48.728;9.154;2023-02-04T12:47:46;98307.25;;;7.81;66.72
14689;BME280;7432;48.728;9.154;2023-02-04T12:50:15;98309.56;;;7.98;66.30
14689;BME280;7432;48.728;9.154;2023-02-04T12:52:48;98302.91;;;8.08;65.20
14689;BME280;7432;48.728;9.154;2023-02-04T12:55:15;98301.16;;;8.08;65.06
14689;BME280;7432;48.728;9.154;2023-02-04T12:57:41;98303.28;;;7.89;66.38
14689;BME280;7432;48.728;9.154;2023-02-04T13:00:09;98305.00;;;7.89;65.92
14689;BME280;7432;48.728;9.154;2023-02-04T13:02:35;98299.09;;;7.74;66.20
14689;BME280;7432;48.728;9.154;2023-02-04T13:05:01;98300.44;;;7.40;67.15
14689;BME280;7432;48.728;9.154;2023-02-04T13:07:29;98294.09;;;7.46;68.48
14689;BME280;7432;48.728;9.154;2023-02-04T13:09:57;98303.59;;;7.44;67.99
14689;BME280;7432;48.728;9.154;2023-02-04T13:12:23;98296.94;;;7.68;69.07
14689;BME280;7432;48.728;9.154;2023-02-04T13:14:49;98292.59;;;7.95;68.00
14689;BME280;7432;48.728;9.154;2023-02-04T13:17:16;98297.97;;;8.17;66.92